sensor_id;sensor_type;location;lat;lon;timestamp;P1;durP1;ratioP1;P2;durP2;ratioP2
21099;SDS011;10708;50.824;4.408;2022-09-17T00:01:35;8.13;;;1.50;;
21099;SDS011;10708;50.824;4.408;2022-09-17T00:06:37;5.43;;;1.47;;
21099;SDS011;10708;50.824;4.408;2022-09-17T00:11:40;5.33;;;1.53;;
21099;SDS011;10708;50.824;4.408;2022-09-17T00:16:45;4.90;;;1.17;;
21099;SDS011;10708;50.824;4.408;2022-09-17T00:21:49;7.57;;;1.33;;
21099;SDS011;10708;50.824;4.408;2022-09-17T00:26:52;6.10;;;1.20;;
21099;SDS011;10708;50.824;4.408;2022-09-17T00:31:55;8.13;;;1.60;;
21099;SDS011;10708;50.824;4.408;2022-09-17T00:36:58;6.87;;;1.10;;
21099;SDS011;10708;50.824;4.408;2022-09-17T00:42:00;5.50;;;1.33;;
21099;SDS011;10708;50.824;4.408;2022-09-17T00:47:07;8.97;;;1.50;;
21099;SDS011;10708;50.824;4.408;2022-09-17T00:52:15;6.37;;;1.40;;
21099;SDS011;10708;50.824;4.408;2022-09-17T00:57:20;8.97;;;1.47;;
21099;SDS011;10708;50.824;4.408;2022-09-17T01:02:24;5.53;;;1.67;;
21099;SDS011;10708;50.824;4.408;2022-09-17T01:07:36;8.80;;;1.30;;
21099;SDS011;10708;50.824;4.408;2022-09-17T01:12:53;4.13;;;1.43;;
21099;SDS011;10708;50.824;4.408;2022-09-17T01:18:08;8.20;;;1.53;;
21099;SDS011;10708;50.824;4.408;2022-09-17T01:23:30;9.03;;;1.60;;
21099;SDS011;10708;50.824;4.408;2022-09-17T01:28:50;9.57;;;1.70;;
21099;SDS011;10708;50.824;4.408;2022-09-17T01:34:06;6.73;;;1.93;;
21099;SDS011;10708;50.824;4.408;2022-09-17T01:39:20;10.93;;;2.03;;
21099;SDS011;10708;50.824;4.408;2022-09-17T01:44:34;14.13;;;1.93;;
21099;SDS011;10708;50.824;4.408;2022-09-17T01:49:42;8.23;;;1.10;;
21099;SDS011;10708;50.824;4.408;2022-09-17T01:54:46;5.20;;;1.57;;
21099;SDS011;10708;50.824;4.408;2022-09-17T01:59:53;10.33;;;1.50;;
21099;SDS011;10708;50.824;4.408;2022-09-17T02:05:01;14.23;;;1.70;;
21099;SDS011;10708;50.824;4.408;2022-09-17T02:10:08;7.57;;;1.23;;
21099;SDS011;10708;50.824;4.408;2022-09-17T02:15:15;12.17;;;1.77;;
21099;SDS011;10708;50.824;4.408;2022-09-17T02:20:24;8.80;;;1.40;;
21099;SDS011;10708;50.824;4.408;2022-09-17T02:25:32;12.73;;;1.83;;
21099;SDS011;10708;50.824;4.408;2022-09-17T02:30:39;5.73;;;1.30;;
21099;SDS011;10708;50.824;4.408;2022-09-17T02:35:43;13.97;;;1.80;;
21099;SDS011;10708;50.824;4.408;2022-09-17T02:40:46;10.57;;;1.73;;
21099;SDS011;10708;50.824;4.408;2022-09-17T02:45:57;14.00;;;1.43;;
21099;SDS011;10708;50.824;4.408;2022-09-17T02:51:15;15.83;;;1.90;;
21099;SDS011;10708;50.824;4.408;2022-09-17T02:56:26;6.13;;;1.27;;
21099;SDS011;10708;50.824;4.408;2022-09-17T03:01:38;10.73;;;1.60;;
21099;SDS011;10708;50.824;4.408;2022-09-17T03:06:45;8.40;;;1.43;;
21099;SDS011;10708;50.824;4.408;2022-09-17T03:11:48;10.97;;;1.97;;
21099;SDS011;10708;50.824;4.408;2022-09-17T03:16:51;10.17;;;1.30;;
21099;SDS011;10708;50.824;4.408;2022-09-17T03:21:54;9.80;;;1.60;;
21099;SDS011;10708;50.824;4.408;2022-09-17T03:26:57;8.13;;;1.67;;
21099;SDS011;10708;50.824;4.408;2022-09-17T03:31:59;14.17;;;1.67;;
21099;SDS011;10708;50.824;4.408;2022-09-17T03:37:02;8.33;;;1.40;;
21099;SDS011;10708;50.824;4.408;2022-09-17T03:42:05;9.23;;;1.67;;
21099;SDS011;10708;50.824;4.408;2022-09-17T03:47:07;11.30;;;1.70;;
21099;SDS011;10708;50.824;4.408;2022-09-17T03:52:11;7.03;;;1.87;;
21099;SDS011;10708;50.824;4.408;2022-09-17T03:57:13;11.57;;;1.73;;
21099;SDS011;10708;50.824;4.408;2022-09-17T04:02:16;14.60;;;1.60;;
21099;SDS011;10708;50.824;4.408;2022-09-17T04:07:19;10.37;;;2.10;;
21099;SDS011;10708;50.824;4.408;2022-09-17T04:12:21;11.47;;;1.87;;
21099;SDS011;10708;50.824;4.408;2022-09-17T04:17:24;10.83;;;1.53;;
21099;SDS011;10708;50.824;4.408;2022-09-17T04:22:27;12.10;;;2.10;;
21099;SDS011;10708;50.824;4.408;2022-09-17T04:27:29;14.17;;;2.00;;
21099;SDS011;10708;50.824;4.408;2022-09-17T04:32:31;16.53;;;2.67;;
21099;SDS011;10708;50.824;4.408;2022-09-17T04:37:35;25.13;;;2.23;;
21099;SDS011;10708;50.824;4.408;2022-09-17T04:42:37;15.50;;;2.00;;
21099;SDS011;10708;50.824;4.408;2022-09-17T04:47:39;12.97;;;1.93;;
21099;SDS011;10708;50.824;4.408;2022-09-17T04:52:43;12.13;;;2.10;;
21099;SDS011;10708;50.824;4.408;2022-09-17T04:57:46;11.83;;;1.87;;
21099;SDS011;10708;50.824;4.408;2022-09-17T05:02:50;13.57;;;1.90;;
21099;SDS011;10708;50.824;4.408;2022-09-17T05:07:54;15.57;;;2.10;;
21099;SDS011;10708;50.824;4.408;2022-09-17T05:12:57;10.10;;;2.07;;
21099;SDS011;10708;50.824;4.408;2022-09-17T05:17:58;13.57;;;2.53;;
21099;SDS011;10708;50.824;4.408;2022-09-17T05:23:02;18.33;;;2.03;;
21099;SDS011;10708;50.824;4.408;2022-09-17T05:28:04;14.53;;;2.27;;
21099;SDS011;10708;50.824;4.408;2022-09-17T05:33:07;15.97;;;2.33;;
21099;SDS011;10708;50.824;4.408;2022-09-17T05:38:10;14.13;;;2.13;;
21099;SDS011;10708;50.824;4.408;2022-09-17T05:43:12;13.87;;;2.13;;
21099;SDS011;10708;50.824;4.408;2022-09-17T05:48:15;16.47;;;2.67;;
21099;SDS011;10708;50.824;4.408;2022-09-17T05:53:18;18.23;;;2.30;;
21099;SDS011;10708;50.824;4.408;2022-09-17T05:58:21;15.13;;;2.13;;
21099;SDS011;10708;50.824;4.408;2022-09-17T06:03:23;11.50;;;2.27;;
21099;SDS011;10708;50.824;4.408;2022-09-17T06:08:27;9.27;;;1.83;;
21099;SDS011;10708;50.824;4.408;2022-09-17T06:13:30;17.60;;;2.30;;
21099;SDS011;10708;50.824;4.408;2022-09-17T06:18:33;15.60;;;2.03;;
21099;SDS011;10708;50.824;4.408;2022-09-17T06:23:37;16.20;;;2.90;;
21099;SDS011;10708;50.824;4.408;2022-09-17T06:28:39;15.03;;;2.10;;
21099;SDS011;10708;50.824;4.408;2022-09-17T06:33:41;15.93;;;2.00;;
21099;SDS011;10708;50.824;4.408;2022-09-17T06:38:45;9.60;;;1.80;;
21099;SDS011;10708;50.824;4.408;2022-09-17T06:43:47;10.67;;;1.83;;
21099;SDS011;10708;50.824;4.408;2022-09-17T06:48:52;13.37;;;1.93;;
21099;SDS011;10708;50.824;4.408;2022-09-17T06:53:56;14.37;;;1.70;;
21099;SDS011;10708;50.824;4.408;2022-09-17T06:58:59;10.80;;;1.63;;
21099;SDS011;10708;50.824;4.408;2022-09-17T07:04:02;15.03;;;1.77;;
21099;SDS011;10708;50.824;4.408;2022-09-17T07:09:06;9.77;;;2.13;;
21099;SDS011;10708;50.824;4.408;2022-09-17T07:14:09;17.77;;;2.23;;
21099;SDS011;10708;50.824;4.408;2022-09-17T07:19:11;16.13;;;2.57;;
21099;SDS011;10708;50.824;4.408;2022-09-17T07:24:15;12.33;;;2.30;;
21099;SDS011;10708;50.824;4.408;2022-09-17T07:29:20;18.70;;;2.47;;
21099;SDS011;10708;50.824;4.408;2022-09-17T07:34:25;13.63;;;2.07;;
21099;SDS011;10708;50.824;4.408;2022-09-17T07:39:30;11.50;;;1.87;;
21099;SDS011;10708;50.824;4.408;2022-09-17T07:44:32;15.60;;;2.53;;
21099;SDS011;10708;50.824;4.408;2022-09-17T07:49:34;11.80;;;1.40;;
21099;SDS011;10708;50.824;4.408;2022-09-17T07:54:38;5.90;;;1.40;;
21099;SDS011;10708;50.824;4.408;2022-09-17T07:59:40;11.07;;;1.83;;
21099;SDS011;10708;50.824;4.408;2022-09-17T08:04:42;8.97;;;1.70;;
21099;SDS011;10708;50.824;4.408;2022-09-17T08:09:46;7.03;;;1.67;;
21099;SDS011;10708;50.824;4.408;2022-09-17T08:14:48;7.45;;;1.42;;
21099;SDS011;10708;50.824;4.408;2022-09-17T08:19:50;12.63;;;1.90;;
21099;SDS011;10708;50.824;4.408;2022-09-17T08:24:55;12.20;;;2.00;;
21099;SDS011;10708;50.824;4.408;2022-09-17T08:29:57;12.77;;;1.80;;
21099;SDS011;10708;50.824;4.408;2022-09-17T08:34:59;10.30;;;1.95;;
21099;SDS011;10708;50.824;4.408;2022-09-17T08:40:03;6.43;;;1.37;;
21099;SDS011;10708;50.824;4.408;2022-09-17T08:45:07;8.23;;;1.30;;
21099;SDS011;10708;50.824;4.408;2022-09-17T08:50:14;9.40;;;1.77;;
21099;SDS011;10708;50.824;4.408;2022-09-17T08:55:29;8.75;;;1.30;;
21099;SDS011;10708;50.824;4.408;2022-09-17T09:00:39;7.72;;;1.15;;
21099;SDS011;10708;50.824;4.408;2022-09-17T09:05:47;10.07;;;1.63;;
21099;SDS011;10708;50.824;4.408;2022-09-17T09:10:54;7.13;;;1.60;;
21099;SDS011;10708;50.824;4.408;2022-09-17T09:15:58;5.03;;;1.10;;
21099;SDS011;10708;50.824;4.408;2022-09-17T09:21:06;9.20;;;1.20;;
21099;SDS011;10708;50.824;4.408;2022-09-17T09:26:23;8.80;;;1.15;;
21099;SDS011;10708;50.824;4.408;2022-09-17T09:31:46;5.57;;;1.63;;
21099;SDS011;10708;50.824;4.408;2022-09-17T09:37:00;6.25;;;1.30;;
21099;SDS011;10708;50.824;4.408;2022-09-17T09:42:17;7.43;;;1.20;;
21099;SDS011;10708;50.824;4.408;2022-09-17T09:47:30;3.08;;;1.20;;
21099;SDS011;10708;50.824;4.408;2022-09-17T09:52:46;5.70;;;1.27;;
21099;SDS011;10708;50.824;4.408;2022-09-17T09:58:04;7.65;;;1.05;;
21099;SDS011;10708;50.824;4.408;2022-09-17T10:03:18;4.50;;;0.68;;
21099;SDS011;10708;50.824;4.408;2022-09-17T10:08:22;3.33;;;0.80;;
21099;SDS011;10708;50.824;4.408;2022-09-17T10:13:26;3.88;;;0.82;;
21099;SDS011;10708;50.824;4.408;2022-09-17T10:18:30;1.85;;;0.80;;
21099;SDS011;10708;50.824;4.408;2022-09-17T10:23:34;3.50;;;0.80;;
21099;SDS011;10708;50.824;4.408;2022-09-17T10:28:46;3.97;;;1.00;;
21099;SDS011;10708;50.824;4.408;2022-09-17T10:33:52;2.17;;;0.70;;
21099;SDS011;10708;50.824;4.408;2022-09-17T10:38:58;3.78;;;0.80;;
21099;SDS011;10708;50.824;4.408;2022-09-17T10:44:22;5.30;;;1.02;;
21099;SDS011;10708;50.824;4.408;2022-09-17T10:49:30;1.85;;;0.80;;
21099;SDS011;10708;50.824;4.408;2022-09-17T11:00:26;5.50;;;0.63;;
21099;SDS011;10708;50.824;4.408;2022-09-17T11:05:44;3.30;;;0.80;;
21099;SDS011;10708;50.824;4.408;2022-09-17T11:11:04;3.67;;;1.05;;
21099;SDS011;10708;50.824;4.408;2022-09-17T11:16:20;2.22;;;0.50;;
21099;SDS011;10708;50.824;4.408;2022-09-17T11:21:39;4.13;;;0.82;;
21099;SDS011;10708;50.824;4.408;2022-09-17T11:26:46;4.38;;;1.00;;
21099;SDS011;10708;50.824;4.408;2022-09-17T11:31:56;1.48;;;0.70;;
21099;SDS011;10708;50.824;4.408;2022-09-17T11:37:08;4.90;;;1.10;;
21099;SDS011;10708;50.824;4.408;2022-09-17T11:42:14;2.05;;;0.70;;
21099;SDS011;10708;50.824;4.408;2022-09-17T11:47:22;6.43;;;1.10;;
21099;SDS011;10708;50.824;4.408;2022-09-17T11:52:31;9.70;;;1.10;;
21099;SDS011;10708;50.824;4.408;2022-09-17T11:57:39;7.85;;;1.55;;
21099;SDS011;10708;50.824;4.408;2022-09-17T12:02:46;3.97;;;0.98;;
21099;SDS011;10708;50.824;4.408;2022-09-17T12:07:53;3.90;;;1.10;;
21099;SDS011;10708;50.824;4.408;2022-09-17T12:13:01;5.72;;;1.33;;
21099;SDS011;10708;50.824;4.408;2022-09-17T12:18:16;6.15;;;1.50;;
21099;SDS011;10708;50.824;4.408;2022-09-17T12:23:28;9.67;;;1.40;;
21099;SDS011;10708;50.824;4.408;2022-09-17T12:28:38;7.88;;;1.30;;
21099;SDS011;10708;50.824;4.408;2022-09-17T12:33:51;5.20;;;1.05;;
21099;SDS011;10708;50.824;4.408;2022-09-17T12:39:02;7.63;;;1.52;;
21099;SDS011;10708;50.824;4.408;2022-09-17T12:44:29;9.45;;;1.70;;
21099;SDS011;10708;50.824;4.408;2022-09-17T12:49:48;8.35;;;1.60;;
21099;SDS011;10708;50.824;4.408;2022-09-17T12:55:09;4.78;;;1.20;;
21099;SDS011;10708;50.824;4.408;2022-09-17T13:00:31;9.23;;;1.50;;
21099;SDS011;10708;50.824;4.408;2022-09-17T13:05:50;4.40;;;1.20;;
21099;SDS011;10708;50.824;4.408;2022-09-17T13:16:42;8.20;;;1.08;;
21099;SDS011;10708;50.824;4.408;2022-09-17T13:21:53;9.35;;;1.48;;
21099;SDS011;10708;50.824;4.408;2022-09-17T13:27:01;7.90;;;1.20;;
21099;SDS011;10708;50.824;4.408;2022-09-17T13:32:05;7.40;;;2.28;;
21099;SDS011;10708;50.824;4.408;2022-09-17T13:37:15;11.23;;;1.60;;
21099;SDS011;10708;50.824;4.408;2022-09-17T13:42:20;7.05;;;1.63;;
21099;SDS011;10708;50.824;4.408;2022-09-17T13:47:28;6.77;;;2.07;;
21099;SDS011;10708;50.824;4.408;2022-09-17T13:52:38;11.03;;;1.53;;
21099;SDS011;10708;50.824;4.408;2022-09-17T13:57:44;6.30;;;1.97;;
21099;SDS011;10708;50.824;4.408;2022-09-17T14:02:50;5.53;;;1.70;;
21099;SDS011;10708;50.824;4.408;2022-09-17T14:08:09;11.00;;;1.25;;
21099;SDS011;10708;50.824;4.408;2022-09-17T14:13:40;6.97;;;1.30;;
21099;SDS011;10708;50.824;4.408;2022-09-17T14:18:49;4.65;;;0.90;;
21099;SDS011;10708;50.824;4.408;2022-09-17T14:24:00;6.18;;;1.02;;
21099;SDS011;10708;50.824;4.408;2022-09-17T14:29:06;3.80;;;0.63;;
21099;SDS011;10708;50.824;4.408;2022-09-17T14:34:19;6.95;;;0.90;;
21099;SDS011;10708;50.824;4.408;2022-09-17T14:39:25;6.05;;;1.20;;
21099;SDS011;10708;50.824;4.408;2022-09-17T14:44:29;5.30;;;1.10;;
21099;SDS011;10708;50.824;4.408;2022-09-17T14:49:34;2.58;;;0.80;;
21099;SDS011;10708;50.824;4.408;2022-09-17T14:54:39;5.97;;;1.17;;
21099;SDS011;10708;50.824;4.408;2022-09-17T14:59:47;7.23;;;1.53;;
21099;SDS011;10708;50.824;4.408;2022-09-17T15:04:51;2.00;;;0.70;;
21099;SDS011;10708;50.824;4.408;2022-09-17T15:10:04;7.35;;;1.50;;
21099;SDS011;10708;50.824;4.408;2022-09-17T15:15:10;3.63;;;0.90;;
21099;SDS011;10708;50.824;4.408;2022-09-17T15:20:19;5.70;;;1.20;;
21099;SDS011;10708;50.824;4.408;2022-09-17T15:25:24;2.97;;;0.98;;
21099;SDS011;10708;50.824;4.408;2022-09-17T15:30:30;4.32;;;1.10;;
21099;SDS011;10708;50.824;4.408;2022-09-17T15:35:33;7.78;;;1.10;;
21099;SDS011;10708;50.824;4.408;2022-09-17T15:40:37;4.53;;;1.27;;
21099;SDS011;10708;50.824;4.408;2022-09-17T15:45:41;2.45;;;1.00;;
21099;SDS011;10708;50.824;4.408;2022-09-17T15:50:48;4.22;;;1.17;;
21099;SDS011;10708;50.824;4.408;2022-09-17T15:56:01;5.60;;;1.23;;
21099;SDS011;10708;50.824;4.408;2022-09-17T16:06:55;3.83;;;0.90;;
21099;SDS011;10708;50.824;4.408;2022-09-17T16:12:05;5.63;;;1.47;;
21099;SDS011;10708;50.824;4.408;2022-09-17T16:17:13;3.67;;;0.90;;
21099;SDS011;10708;50.824;4.408;2022-09-17T16:22:32;7.13;;;1.35;;
21099;SDS011;10708;50.824;4.408;2022-09-17T16:27:37;4.75;;;1.00;;
21099;SDS011;10708;50.824;4.408;2022-09-17T16:32:45;4.10;;;1.10;;
21099;SDS011;10708;50.824;4.408;2022-09-17T16:37:48;3.73;;;1.00;;
21099;SDS011;10708;50.824;4.408;2022-09-17T16:42:52;5.57;;;1.50;;
21099;SDS011;10708;50.824;4.408;2022-09-17T16:47:54;6.18;;;0.90;;
21099;SDS011;10708;50.824;4.408;2022-09-17T16:52:57;6.05;;;1.15;;
21099;SDS011;10708;50.824;4.408;2022-09-17T16:58:00;4.97;;;1.67;;
21099;SDS011;10708;50.824;4.408;2022-09-17T17:03:03;3.92;;;1.23;;
21099;SDS011;10708;50.824;4.408;2022-09-17T17:08:06;3.90;;;1.30;;
21099;SDS011;10708;50.824;4.408;2022-09-17T17:13:11;6.83;;;1.83;;
21099;SDS011;10708;50.824;4.408;2022-09-17T17:18:13;5.57;;;1.43;;
21099;SDS011;10708;50.824;4.408;2022-09-17T17:23:16;6.47;;;2.30;;
21099;SDS011;10708;50.824;4.408;2022-09-17T17:28:19;6.67;;;1.50;;
21099;SDS011;10708;50.824;4.408;2022-09-17T17:33:21;4.70;;;1.77;;
21099;SDS011;10708;50.824;4.408;2022-09-17T17:38:24;6.33;;;1.80;;
21099;SDS011;10708;50.824;4.408;2022-09-17T17:43:27;5.53;;;1.80;;
21099;SDS011;10708;50.824;4.408;2022-09-17T17:48:30;10.23;;;2.30;;
21099;SDS011;10708;50.824;4.408;2022-09-17T17:53:32;17.93;;;4.80;;
21099;SDS011;10708;50.824;4.408;2022-09-17T17:58:37;5.97;;;1.93;;
21099;SDS011;10708;50.824;4.408;2022-09-17T18:03:40;7.13;;;2.00;;
21099;SDS011;10708;50.824;4.408;2022-09-17T18:08:42;6.80;;;2.43;;
21099;SDS011;10708;50.824;4.408;2022-09-17T18:13:49;5.57;;;2.00;;
21099;SDS011;10708;50.824;4.408;2022-09-17T18:18:53;7.07;;;1.77;;
21099;SDS011;10708;50.824;4.408;2022-09-17T18:23:56;5.20;;;1.83;;
21099;SDS011;10708;50.824;4.408;2022-09-17T18:29:00;12.77;;;1.80;;
21099;SDS011;10708;50.824;4.408;2022-09-17T18:34:03;8.77;;;2.07;;
21099;SDS011;10708;50.824;4.408;2022-09-17T18:39:08;7.43;;;1.70;;
21099;SDS011;10708;50.824;4.408;2022-09-17T18:44:15;9.30;;;2.60;;
21099;SDS011;10708;50.824;4.408;2022-09-17T18:49:18;8.67;;;2.53;;
21099;SDS011;10708;50.824;4.408;2022-09-17T18:54:21;6.60;;;2.27;;
21099;SDS011;10708;50.824;4.408;2022-09-17T18:59:24;7.88;;;2.92;;
21099;SDS011;10708;50.824;4.408;2022-09-17T19:04:27;9.40;;;2.53;;
21099;SDS011;10708;50.824;4.408;2022-09-17T19:09:29;7.87;;;2.80;;
21099;SDS011;10708;50.824;4.408;2022-09-17T19:14:32;9.30;;;2.77;;
21099;SDS011;10708;50.824;4.408;2022-09-17T19:19:35;7.70;;;2.90;;
21099;SDS011;10708;50.824;4.408;2022-09-17T19:24:37;11.00;;;2.77;;
21099;SDS011;10708;50.824;4.408;2022-09-17T19:29:41;6.53;;;2.50;;
21099;SDS011;10708;50.824;4.408;2022-09-17T19:34:43;8.03;;;2.87;;
21099;SDS011;10708;50.824;4.408;2022-09-17T19:39:45;10.93;;;2.73;;
21099;SDS011;10708;50.824;4.408;2022-09-17T19:44:49;7.50;;;2.93;;
21099;SDS011;10708;50.824;4.408;2022-09-17T19:49:51;9.33;;;2.57;;
21099;SDS011;10708;50.824;4.408;2022-09-17T19:54:53;9.07;;;2.63;;
21099;SDS011;10708;50.824;4.408;2022-09-17T19:59:57;8.53;;;2.37;;
21099;SDS011;10708;50.824;4.408;2022-09-17T20:04:59;10.03;;;2.27;;
21099;SDS011;10708;50.824;4.408;2022-09-17T20:10:01;8.33;;;2.47;;
21099;SDS011;10708;50.824;4.408;2022-09-17T20:15:07;8.63;;;2.40;;
21099;SDS011;10708;50.824;4.408;2022-09-17T20:20:09;10.97;;;2.40;;
21099;SDS011;10708;50.824;4.408;2022-09-17T20:25:13;6.47;;;2.20;;
21099;SDS011;10708;50.824;4.408;2022-09-17T20:30:16;8.73;;;3.13;;
21099;SDS011;10708;50.824;4.408;2022-09-17T20:35:19;6.80;;;2.50;;
21099;SDS011;10708;50.824;4.408;2022-09-17T20:40:21;12.00;;;2.77;;
21099;SDS011;10708;50.824;4.408;2022-09-17T20:45:24;9.80;;;3.13;;
21099;SDS011;10708;50.824;4.408;2022-09-17T20:50:27;11.03;;;2.60;;
21099;SDS011;10708;50.824;4.408;2022-09-17T20:55:29;10.83;;;2.83;;
21099;SDS011;10708;50.824;4.408;2022-09-17T21:00:32;8.87;;;2.73;;
21099;SDS011;10708;50.824;4.408;2022-09-17T21:05:36;6.43;;;2.70;;
21099;SDS011;10708;50.824;4.408;2022-09-17T21:10:41;12.37;;;3.20;;
21099;SDS011;10708;50.824;4.408;2022-09-17T21:15:54;14.70;;;3.07;;
21099;SDS011;10708;50.824;4.408;2022-09-17T21:20:59;12.80;;;3.10;;
21099;SDS011;10708;50.824;4.408;2022-09-17T21:26:02;6.77;;;2.73;;
21099;SDS011;10708;50.824;4.408;2022-09-17T21:31:08;8.17;;;2.63;;
21099;SDS011;10708;50.824;4.408;2022-09-17T21:36:12;8.20;;;2.40;;
21099;SDS011;10708;50.824;4.408;2022-09-17T21:41:16;4.73;;;1.97;;
21099;SDS011;10708;50.824;4.408;2022-09-17T21:46:20;8.60;;;3.07;;
21099;SDS011;10708;50.824;4.408;2022-09-17T21:51:24;12.10;;;2.63;;
21099;SDS011;10708;50.824;4.408;2022-09-17T21:56:30;12.20;;;2.60;;
21099;SDS011;10708;50.824;4.408;2022-09-17T22:01:34;8.33;;;2.27;;
21099;SDS011;10708;50.824;4.408;2022-09-17T22:06:39;5.63;;;2.20;;
21099;SDS011;10708;50.824;4.408;2022-09-17T22:11:42;6.73;;;2.00;;
21099;SDS011;10708;50.824;4.408;2022-09-17T22:16:46;5.17;;;1.77;;
21099;SDS011;10708;50.824;4.408;2022-09-17T22:21:53;10.10;;;2.10;;
21099;SDS011;10708;50.824;4.408;2022-09-17T22:26:56;11.37;;;2.07;;
21099;SDS011;10708;50.824;4.408;2022-09-17T22:32:00;5.60;;;1.90;;
21099;SDS011;10708;50.824;4.408;2022-09-17T22:37:03;8.07;;;1.63;;
21099;SDS011;10708;50.824;4.408;2022-09-17T22:42:06;5.80;;;1.90;;
21099;SDS011;10708;50.824;4.408;2022-09-17T22:47:09;6.63;;;1.73;;
21099;SDS011;10708;50.824;4.408;2022-09-17T22:52:11;8.00;;;1.93;;
21099;SDS011;10708;50.824;4.408;2022-09-17T22:57:13;12.03;;;1.80;;
21099;SDS011;10708;50.824;4.408;2022-09-17T23:02:17;8.17;;;2.00;;
21099;SDS011;10708;50.824;4.408;2022-09-17T23:07:19;7.93;;;2.50;;
21099;SDS011;10708;50.824;4.408;2022-09-17T23:12:30;12.73;;;2.90;;
21099;SDS011;10708;50.824;4.408;2022-09-17T23:17:34;6.47;;;2.40;;
21099;SDS011;10708;50.824;4.408;2022-09-17T23:22:37;8.07;;;2.60;;
21099;SDS011;10708;50.824;4.408;2022-09-17T23:27:39;8.27;;;2.80;;
21099;SDS011;10708;50.824;4.408;2022-09-17T23:32:43;7.70;;;3.87;;
21099;SDS011;10708;50.824;4.408;2022-09-17T23:37:45;9.67;;;3.53;;
21099;SDS011;10708;50.824;4.408;2022-09-17T23:42:48;13.00;;;4.20;;
21099;SDS011;10708;50.824;4.408;2022-09-17T23:47:52;14.60;;;4.20;;
21099;SDS011;10708;50.824;4.408;2022-09-17T23:52:54;9.30;;;4.37;;
21099;SDS011;10708;50.824;4.408;2022-09-17T23:57:57;13.30;;;3.47;;
